Tiempo atmosférico en la estación meteorológica de El Bodón Base Aérea, Salamanca (805 m.)



Fecha
DESCASC
Temp. máxima en grados centígrados (hora)
DESCASC
Temp. mínima en grados centígrados (hora)
DESCASC
Temp. media en grados centígrados
DESCASC
Racha de viento máxima en m/sg (hora)
DESCASC
Velocidad máxima media en intervalos de 10 minutos(hora)
DESCASC
Precipitaciones diarias en mm
DESCASC
Precipitaciones de 00:00 a 06:00 en mm
DESCASC
Precipitaciones de 06:00 a 12:00 en mm
DESCASC
Precipitaciones de 12:00 a 18:00 en mm
DESCASC
Precipitaciones de 18:00 a 24:00 en mm
DESCASC
13-06-2019 22.8 (18:20) 4.1 (07:10) 13.4 10.56 (14:50) 5.83 (17:20) 0 0 0 0 0
12-06-2019 22.4 (18:50) 5.7 (06:10) 14 9.72 (17:10) 5.28 (21:50) 0 0 0 0 0
11-06-2019 19.7 (17:50) 7 (07:10) 13.4 12.5 (12:50) 6.94 (14:40) 0 0 0 0 0
10-06-2019 22.2 (18:40) 6.4 (07:00) 14.3 11.67 (14:40) 6.67 (20:40) 0 0 0 0 0
09-06-2019 21.4 (16:50) 5.8 (00:00) 13.6 9.72 (18:00) 6.94 (20:10) 0 0 0 0 0
08-06-2019 23 (17:50) 4.1 (00:00) 13.5 9.72 (14:40) 5.28 (21:50) 0 0 0 0 0
07-06-2019 17.1 (17:20) 5.7 (00:00) 11.4 8.89 (00:20) 5 (04:50) 0 0 0 0 0
06-06-2019 18.4 (17:10) 2.1 (00:00) 10.2 18.06 (17:20) 12.78 (17:20) 3.4 0 0 0 3.4
05-06-2019 16.8 (17:10) 6 (00:00) 11.4 11.67 (11:30) 8.06 (12:30) 0 0 0 0 0
04-06-2019 21.9 (14:10) 11.1 (00:00) 16.5 14.44 (16:10) 7.78 (16:40) 0 0 0 0 0
03-06-2019 28.7 (16:40) 9.1 (00:00) 18.9 12.22 (18:30) 7.5 (18:30) 0 0 0 0 0
02-06-2019 30.6 (15:00) 11 (00:00) 20.8 9.72 (16:20) 6.39 (16:20) 0 0 0 0 0
01-06-2019 31.3 (16:20) 10.6 (00:00) 20.9 8.61 (16:10) 4.72 (16:00) 0 0 0 0 0
31-05-2019 30.5 (18:00) 9.1 (00:00) 19.8 6.67 (16:40) 4.17 (06:40) 0 0 0 0 0
30-05-2019 29.1 (18:10) 8 (00:00) 18.6 10.28 (17:10) 5.28 (16:40) 0 0 0 0 0
29-05-2019 25.1 (17:40) 8.5 (00:00) 16.8 11.39 (11:10) 7.22 (11:10) 0 0 0 0 0
28-05-2019 24 (18:10) 9.8 (00:00) 16.9 10.83 (14:00) 6.67 (15:00) 0 0 0 0 0
27-05-2019 25.3 (17:10) 9.7 (00:00) 17.5 11.11 (15:40) 6.39 (16:00) 0 0 0 0 0
26-05-2019 25.9 (17:40) 8.1 (00:00) 17 10.28 (13:10) 5.83 (12:40) 0 0 0 0 0
25-05-2019 22.4 (18:10) 8.1 (00:00) 15.3 11.94 (09:40) 6.94 (11:00) 0 0 0 0 0
24-05-2019 21.8 (18:10) 8.2 (00:00) 15 13.33 (15:00) 6.94 (13:30) 0 0 0 0 0
23-05-2019 23.9 (16:50) 8.9 (00:00) 16.4 10 (21:20) 6.94 (21:00) 0 0 0 0 0
22-05-2019 25.6 (16:50) 6.3 (00:00) 16 8.33 (15:30) 4.72 (18:00) 0 0 0 0 0
21-05-2019 22.6 (18:40) 4.4 (07:40) 13.5 7.5 (14:30) 3.61 (19:30) 0 0 0 0 0
20-05-2019 19.3 (17:40) 3.1 (06:30) 11.2 10 (19:50) 7.22 (19:50) 0 0 0 0 0
19-05-2019 17.8 (18:10) 1.2 (00:00) 9.5 10 (16:30) 6.11 (16:30) 0 0 0 0 0
18-05-2019 15.2 (18:10) 2.6 (00:00) 8.9 11.67 (16:50) 6.94 (20:10) 0 0 0 0 0
17-05-2019 15.2 (16:20) 5.1 (00:00) 10.1 13.89 (16:20) 8.61 (00:10) 0 0 0 0 0

Gráficas

Temp. máximas Temp. mínimas Temp. medias Precipitaciones Rachas de viento máximas Velocidades máximas media en intervalos de 10 minutos

Datos horarios

Fecha y hora oficial Temperatura (ºC) Velocidad del viento (km/h) Dirección del viento Racha (km/h) Dirección de racha Precipitación (mm) Presión (hPa) Tendencia (hPa) Humedad (%)
2019-06-15 23:00:00 16.1 5 Norte 8 Noroeste 0 -- -- 45
2019-06-15 22:00:00 18.2 7 Norte 14 Norte 0 -- -- 39
2019-06-15 21:00:00 20.3 10 Noroeste 22 Norte 0 -- -- 35
2019-06-15 20:00:00 21.3 7 Norte 24 Norte 0 -- -- 33
2019-06-15 19:00:00 21.9 10 Norte 24 Norte 0 -- -- 32
2019-06-15 18:00:00 21.8 5 Sur 22 Norte 0 -- -- 34
2019-06-15 17:00:00 21.5 8 Oeste 18 Nordeste 0 -- -- 34
2019-06-15 16:00:00 20.4 9 Norte 20 Norte 0 -- -- 37
2019-06-15 15:00:00 19.1 12 Norte 21 Nordeste 0 -- -- 41
2019-06-15 14:00:00 17.8 8 Norte 17 Noroeste 0 -- -- 44
2019-06-15 13:00:00 17.2 10 Este 19 Este 0 -- -- 44
2019-06-15 12:00:00 14.6 5 Norte 19 Norte 0 -- -- 56
2019-06-15 11:00:00 12.5 8 Norte 16 Norte 0 -- -- 67
2019-06-15 10:00:00 11.2 7 Norte 12 Nordeste 0 -- -- 75
2019-06-15 09:00:00 8.7 3 Norte 8 Noroeste 0 -- -- 92
2019-06-15 08:00:00 5.8 2 Sur 9 Sudeste 0 -- -- 93
2019-06-15 07:00:00 5.7 0 Calma 7 Noroeste 0 -- -- 93
2019-06-15 06:00:00 5.6 2 Noroeste 8 Sudeste 0 -- -- 91
2019-06-15 05:00:00 6.2 0 Calma 6 Sudeste 0 -- -- 90
2019-06-15 04:00:00 6.5 6 Sudeste 8 Sudeste 0 -- -- 87
2019-06-15 03:00:00 7.3 4 Noroeste 10 Oeste 0 -- -- 83
2019-06-15 02:00:00 8.3 4 Sudoeste 10 Noroeste 0 -- -- 80
2019-06-15 01:00:00 9.2 6 Oeste 16 Noroeste 0 -- -- 77
2019-06-15 00:00:00 10.3 5 Oeste 19 Noroeste 0 -- -- 73
2019-06-14 23:00:00 11.8 17 Noroeste 33 Oeste 0 -- -- 66
2019-06-14 22:00:00 12.4 24 Oeste 39 Oeste 0 -- -- 61
2019-06-14 21:00:00 13.7 21 Noroeste 34 Noroeste 0 -- -- 56
2019-06-14 20:00:00 15.2 27 Oeste 38 Oeste 0 -- -- 48
2019-06-14 19:00:00 16.9 20 Oeste 39 Oeste 0 -- -- 45
2019-06-14 18:00:00 16.7 26 Noroeste 35 Oeste 0 -- -- 47
2019-06-14 17:00:00 16.8 12 Oeste 34 Noroeste 0 -- -- 44
2019-06-14 16:00:00 16.9 13 Oeste 30 Sudoeste 0 -- -- 46
2019-06-14 15:00:00 17.5 13 Oeste 27 Oeste 0 -- -- 44
2019-06-14 14:00:00 16.1 9 Noroeste 23 Noroeste 0 -- -- 48
2019-06-14 13:00:00 15.2 9 Sudoeste 22 Oeste 0 -- -- 51
2019-06-14 12:00:00 14.6 11 Noroeste 25 Oeste 0 -- -- 55
2019-06-14 11:00:00 12.7 8 Oeste 16 Noroeste 0 -- -- 64
2019-06-14 10:00:00 11.2 8 Noroeste 15 Noroeste 0 -- -- 72
2019-06-14 09:00:00 8 4 Sur 9 Noroeste 0 -- -- 90
2019-06-14 08:00:00 4.2 5 Sur 6 Sur 0 -- -- 91
2019-06-14 07:00:00 3.6 5 Sur 9 Sur 0 -- -- 91
2019-06-14 06:00:00 4.4 7 Sur 12 Sur 0 -- -- 87
2019-06-14 05:00:00 6 4 Sur 8 Sur 0 -- -- 86
2019-06-14 04:00:00 7.2 4 Sur 6 Sur 0 -- -- 80
2019-06-14 03:00:00 8.3 3 Sudoeste 4 Sudoeste 0 -- -- 76
2019-06-14 02:00:00 9.1 3 Sudoeste 9 Noroeste 0 -- -- 70
2019-06-14 01:00:00 10.9 7 Norte 15 Norte 0 -- -- 65
2019-06-14 00:00:00 11.8 11 Noroeste 17 Noroeste 0 -- -- 61
2019-06-13 23:00:00 13.6 12 Noroeste 25 Noroeste 0 -- -- 55
2019-06-13 22:00:00 15.9 15 Noroeste 27 Noroeste 0 -- -- 48
2019-06-13 21:00:00 18.3 19 Noroeste 29 Noroeste 0 -- -- 42
2019-06-13 20:00:00 20.4 17 Noroeste 29 Noroeste 0 -- -- 37
2019-06-13 19:00:00 22.5 16 Sudoeste 33 Sur 0 -- -- 28
2019-06-13 18:00:00 22.5 12 Sur 34 Sur 0 -- -- 30
2019-06-13 17:00:00 22.5 15 Sur 32 Sur 0 -- -- 29
2019-06-13 16:00:00 21.7 17 Sur 30 Sur 0 -- -- 33
2019-06-13 15:00:00 21.4 18 Sur 38 Sur 0 -- -- 32
2019-06-13 14:00:00 19.7 10 Sudoeste 24 Sur 0 -- -- 43
2019-06-13 13:00:00 17.8 12 Sudoeste 22 Oeste 0 -- -- 44
2019-06-13 12:00:00 15.4 5 Sudoeste 22 Noroeste 0 -- -- 53
2019-06-13 11:00:00 13.2 8 Norte 17 Norte 0 -- -- 63
2019-06-13 10:00:00 11 7 Norte 13 Norte 0 -- -- 74
2019-06-13 09:00:00 8.3 0 Calma 6 Sur 0 -- -- 92
2019-06-13 08:00:00 4.6 3 Sudeste 6 Sur 0 -- -- 93
2019-06-13 07:00:00 4.2 4 Sur 6 Sudeste 0 -- -- 92
2019-06-13 06:00:00 5 4 Sur 8 Sur 0 -- -- 90
2019-06-13 05:00:00 6.3 3 Sudoeste 6 Oeste 0 -- -- 86
2019-06-13 04:00:00 7.2 3 Sudoeste 9 Noroeste 0 -- -- 84
2019-06-13 03:00:00 7.8 3 Oeste 8 Noroeste 0 -- -- 77
2019-06-13 02:00:00 9.3 2 Oeste 8 Noroeste 0 -- -- 72
2019-06-13 01:00:00 10.6 5 Noroeste 18 Oeste 0 -- -- 69
2019-06-13 00:00:00 12.4 12 Noroeste 22 Noroeste 0 -- -- 62
2019-06-12 23:00:00 14.3 14 Noroeste 26 Oeste 0 -- -- 55
2019-06-12 22:00:00 17 19 Noroeste 29 Noroeste 0 -- -- 40
2019-06-12 21:00:00 19.3 14 Noroeste 24 Nordeste 0 -- -- 29
2019-06-12 20:00:00 20.5 13 Norte 29 Norte 0 -- -- 27
2019-06-12 19:00:00 21.7 5 Norte 30 Sur 0 -- -- 28
2019-06-12 18:00:00 21.6 13 Sur 35 Sudoeste 0 -- -- 28
2019-06-12 17:00:00 22 11 Sudoeste 28 Sudoeste 0 -- -- 28
2019-06-12 16:00:00 21.1 11 Noroeste 29 Norte 0 -- -- 28
2019-06-12 15:00:00 20.1 7 Oeste 21 Sur 0 -- -- 27
2019-06-12 14:00:00 18.8 6 Noroeste 21 Noroeste 0 -- -- 31
2019-06-12 13:00:00 17.9 6 Sur 15 Oeste 0 -- -- 38
2019-06-12 12:00:00 15.9 9 Norte 21 Nordeste 0 -- -- 42
2019-06-12 11:00:00 13.7 9 Norte 18 Norte 0 -- -- 47
2019-06-12 10:00:00 11.6 7 Noroeste 11 Noroeste 0 -- -- 52
2019-06-12 09:00:00 9.2 6 Norte 10 Norte 0 -- -- 59
2019-06-12 08:00:00 6.4 5 Norte 10 Norte 0 -- -- 68
2019-06-12 07:00:00 5.8 8 Norte 13 Noroeste 0 -- -- 69
2019-06-12 06:00:00 5.8 7 Norte 11 Norte 0 -- -- 68
2019-06-12 05:00:00 7.2 5 Norte 14 Norte 0 -- -- 64
2019-06-12 04:00:00 7.7 8 Norte 16 Norte 0 -- -- 64
2019-06-12 03:00:00 8.7 9 Norte 13 Norte 0 -- -- 61
2019-06-12 02:00:00 9.4 8 Norte 17 Noroeste 0 -- -- 59
2019-06-12 01:00:00 10.5 10 Noroeste 14 Noroeste 0 -- -- 54
2019-06-12 00:00:00 12.2 9 Noroeste 20 Noroeste 0 -- -- 50
2019-06-11 23:00:00 13.7 15 Noroeste 25 Noroeste 0 -- -- 44
2019-06-11 22:00:00 16.3 6 Nordeste 25 Nordeste 0 -- -- 31
2019-06-11 21:00:00 18.2 17 Norte 31 Nordeste 0 -- -- 27
2019-06-11 20:00:00 19.1 18 Norte 39 Norte 0 -- -- 25
2019-06-11 19:00:00 19.4 21 Norte 41 Nordeste 0 -- -- 24
2019-06-11 18:00:00 19.7 20 Nordeste 39 Norte 0 -- -- 25
2019-06-11 17:00:00 19.3 18 Norte 42 Nordeste 0 -- -- 28
2019-06-11 16:00:00 18.7 20 Norte 43 Nordeste 0 -- -- 30
2019-06-11 15:00:00 18.2 21 Nordeste 42 Nordeste 0 -- -- 31
2019-06-11 14:00:00 17 21 Norte 40 Norte 0 -- -- 37
2019-06-11 13:00:00 16.8 19 Norte 45 Norte 0 -- -- 39
2019-06-11 12:00:00 14.9 18 Norte 35 Norte 0 -- -- 48
2019-06-11 11:00:00 12.8 22 Norte 35 Norte 0 -- -- 58
2019-06-11 10:00:00 11.9 20 Norte 32 Norte 0 -- -- 65
2019-06-11 09:00:00 9.1 11 Norte 18 Norte 0 -- -- 84
2019-06-11 08:00:00 8 9 Noroeste 14 Noroeste 0 -- -- 89
2019-06-11 07:00:00 7.2 8 Noroeste 12 Noroeste 0 -- -- 86
2019-06-11 06:00:00 7.6 6 Norte 13 Noroeste 0 -- -- 85
2019-06-11 05:00:00 8.6 6 Noroeste 12 Norte 0 -- -- 80
2019-06-11 04:00:00 8.3 6 Noroeste 12 Noroeste 0 -- -- 78
2019-06-11 03:00:00 9.6 10 Noroeste 22 Noroeste 0 -- -- 75
2019-06-11 02:00:00 10.5 9 Noroeste 24 Noroeste 0 -- -- 72
2019-06-11 01:00:00 11.8 16 Noroeste 31 Noroeste 0 -- -- 67
2019-06-11 00:00:00 13.1 20 Noroeste 31 Noroeste 0 -- -- 61
2019-06-10 23:00:00 14.4 15 Oeste 32 Oeste 0 -- -- 58
2019-06-10 22:00:00 16.6 21 Oeste 33 Oeste 0 -- -- 49
2019-06-10 21:00:00 18.9 24 Oeste 36 Oeste 0 -- -- 43
2019-06-10 20:00:00 20.7 23 Noroeste 33 Oeste 0 -- -- 34
2019-06-10 19:00:00 22 18 Noroeste 29 Oeste 0 -- -- 25
2019-06-10 18:00:00 21.8 18 Norte 30 Noroeste 0 -- -- 27
2019-06-10 17:00:00 21.3 16 Norte 32 Noroeste 0 -- -- 26
2019-06-10 16:00:00 20.7 19 Noroeste 33 Noroeste 0 -- -- 27
2019-06-10 15:00:00 19.9 11 Norte 42 Norte 0 -- -- 28
2019-06-10 14:00:00 18.5 11 Norte 33 Noroeste 0 -- -- 32
2019-06-10 13:00:00 17.2 11 Noroeste 22 Norte 0 -- -- 43
2019-06-10 12:00:00 15.4 13 Noroeste 21 Noroeste 0 -- -- 52
2019-06-10 11:00:00 13.7 13 Norte 21 Noroeste 0 -- -- 62
2019-06-10 10:00:00 11.5 13 Norte 22 Noroeste 0 -- -- 73
2019-06-10 09:00:00 9.8 16 Norte 23 Noroeste 0 -- -- 82
2019-06-10 08:00:00 7.8 7 Norte 12 Noroeste 0 -- -- 88
2019-06-10 07:00:00 6.4 8 Noroeste 10 Noroeste 0 -- -- 86
2019-06-10 06:00:00 7.9 5 Norte 11 Norte 0 -- -- 84
2019-06-10 05:00:00 7.5 8 Noroeste 11 Noroeste 0 -- -- 83
2019-06-10 04:00:00 9 6 Norte 10 Noroeste 0 -- -- 79
2019-06-10 03:00:00 9.4 6 Norte 10 Noroeste 0 -- -- 76
2019-06-10 02:00:00 9.9 7 Noroeste 10 Noroeste 0 -- -- 73
2019-06-10 01:00:00 10.9 6 Noroeste 13 Noroeste 0 -- -- 69
2019-06-10 00:00:00 12.1 10 Noroeste 18 Noroeste 0 -- -- 65
2019-06-09 23:00:00 13.4 11 Noroeste 24 Noroeste 0 -- -- 61
2019-06-09 22:00:00 15.4 19 Noroeste 33 Noroeste 0 -- -- 55
2019-06-09 21:00:00 17.5 22 Noroeste 35 Noroeste 0 -- -- 47
2019-06-09 20:00:00 18.8 23 Noroeste 33 Oeste 0 -- -- 45
2019-06-09 19:00:00 19.9 20 Noroeste 30 Noroeste 0 -- -- 39
2019-06-09 18:00:00 20.6 19 Noroeste 35 Noroeste 0 -- -- 38
2019-06-09 17:00:00 20.9 22 Oeste 33 Oeste 0 -- -- 34
2019-06-09 16:00:00 20.6 20 Oeste 32 Oeste 0 -- -- 36
2019-06-09 15:00:00 19.7 15 Noroeste 31 Oeste 0 -- -- 41
2019-06-09 14:00:00 19.1 12 Noroeste 27 Noroeste 0 -- -- 38
2019-06-09 13:00:00 18.2 14 Noroeste 25 Noroeste 0 -- -- 41
2019-06-09 12:00:00 16.4 5 Nordeste 14 Noroeste 0 -- -- 55
2019-06-09 11:00:00 14.1 7 Norte 15 Nordeste 0 -- -- 63
2019-06-09 10:00:00 11.7 5 Norte 13 Norte 0 -- -- 72
2019-06-09 09:00:00 9.2 4 Noroeste 10 Oeste 0 -- -- 85
2019-06-09 08:00:00 5.8 5 Sur 7 Sur 0 -- -- 90
2019-06-09 07:00:00 6.2 3 Sur 8 Oeste 0 -- -- 85
2019-06-09 06:00:00 7.2 5 Oeste 10 Oeste 0 -- -- 85
2019-06-09 05:00:00 8.1 3 Oeste 5 Noroeste 0 -- -- 85
2019-06-09 04:00:00 8.4 0 Calma 3 Norte 0 -- -- 84
2019-06-09 03:00:00 9 0 Calma 4 Noroeste 0 -- -- 80
2019-06-09 02:00:00 10.3 3 Norte 6 Noroeste 0 -- -- 76
2019-06-09 01:00:00 11.1 2 Noroeste 7 Oeste 0 -- -- 74
2019-06-09 00:00:00 12.4 3 Oeste 21 Noroeste 0 -- -- 71
2019-06-08 23:00:00 14.3 17 Noroeste 23 Noroeste 0 -- -- 65
2019-06-08 22:00:00 16.7 18 Noroeste 27 Noroeste 0 -- -- 54
2019-06-08 21:00:00 20.1 12 Noroeste 21 Noroeste 0 -- -- 41
2019-06-08 20:00:00 21.3 12 Sur 19 Sur 0 -- -- 27
2019-06-08 19:00:00 21.9 10 Sudoeste 25 Sudoeste 0 -- -- 24
2019-06-08 18:00:00 22.5 12 Sur 23 Sur 0 -- -- 28
2019-06-08 17:00:00 22.6 9 Sur 26 Sudoeste 0 -- -- 27
2019-06-08 16:00:00 21.7 14 Sudoeste 25 Sudoeste 0 -- -- 28
2019-06-08 15:00:00 22.3 11 Sur 35 Sur 0 -- -- 30
2019-06-08 14:00:00 21.5 12 Sudeste 32 Sur 0 -- -- 32
2019-06-08 13:00:00 19.3 7 Nordeste 16 Este 0 -- -- 38
2019-06-08 12:00:00 17.1 6 Noroeste 14 Norte 0 -- -- 44
2019-06-08 11:00:00 14.3 6 Norte 11 Norte 0 -- -- 57
2019-06-08 10:00:00 10.9 4 Norte 7 Norte 0 -- -- 68
2019-06-08 09:00:00 7 3 Sur 6 Sur 0 -- -- 88
2019-06-08 08:00:00 4.1 3 Sudeste 8 Noroeste 0 -- -- 88
2019-06-08 07:00:00 5.5 6 Norte 9 Norte 0 -- -- 87
2019-06-08 06:00:00 6 7 Norte 10 Noroeste 0 -- -- 85
2019-06-08 05:00:00 6.4 4 Norte 6 Norte 0 -- -- 82
2019-06-08 04:00:00 6.9 4 Norte 6 Norte 0 -- -- 81
2019-06-08 03:00:00 7.5 4 Norte 9 Noroeste 0 -- -- 79
2019-06-08 02:00:00 8.1 6 Noroeste 10 Norte 0 -- -- 75
2019-06-08 01:00:00 8.9 7 Norte 14 Norte 0 -- -- 69
2019-06-08 00:00:00 10.2 7 Norte 12 Noroeste 0 -- -- 65
2019-06-07 23:00:00 11.3 8 Norte 15 Norte 0 -- -- 59
2019-06-07 22:00:00 12.3 7 Noroeste 15 Oeste 0 -- -- 56
2019-06-07 21:00:00 14.3 10 Noroeste 20 Norte 0 -- -- 50
2019-06-07 20:00:00 15.1 12 Norte 22 Noroeste 0 -- -- 46
2019-06-07 19:00:00 15.3 12 Norte 24 Noroeste 0 -- -- 46
2019-06-07 18:00:00 16.2 15 Norte 31 Oeste 0 -- -- 41
2019-06-07 17:00:00 15.9 10 Noroeste 26 Norte 0 -- -- 44
2019-06-07 16:00:00 16.4 9 Oeste 20 Oeste 0 -- -- 42
2019-06-07 15:00:00 13.7 10 Noroeste 27 Noroeste 0 -- -- 52
2019-06-07 14:00:00 14.5 16 Noroeste 31 Norte 0 -- -- 53
2019-06-07 13:00:00 12.7 10 Noroeste 25 Noroeste 0 -- -- 55
2019-06-07 12:00:00 10.4 13 Noroeste 23 Noroeste 0 -- -- 67
2019-06-07 11:00:00 10.6 16 Noroeste 24 Noroeste 0 -- -- 68
2019-06-07 10:00:00 8.4 14 Oeste 22 Oeste 0 -- -- 79
2019-06-07 09:00:00 8.3 8 Oeste 14 Oeste 0 -- -- 85
2019-06-07 08:00:00 6.3 6 Oeste 18 Noroeste 0 -- -- 90
2019-06-07 07:00:00 6.3 14 Oeste 25 Oeste 0 -- -- 87
2019-06-07 06:00:00 6.8 14 Oeste 21 Oeste 0 -- -- 86
2019-06-07 05:00:00 7.2 17 Oeste 25 Oeste 0 -- -- 85
2019-06-07 04:00:00 6.5 9 Oeste 17 Sudoeste 0 -- -- 85
2019-06-07 03:00:00 6.9 13 Oeste 21 Oeste 0 -- -- 84
2019-06-07 02:00:00 6.5 10 Sudoeste 18 Sudoeste 0 -- -- 88
2019-06-07 01:00:00 7.4 8 Sudoeste 32 Oeste 0 -- -- 89
2019-06-07 00:00:00 8.7 7 Oeste 33 Oeste 0 -- -- 92
2019-06-06 23:00:00 9.3 20 Oeste 31 Oeste 2 -- -- 93
2019-06-06 22:00:00 10.3 29 Oeste 60 Sur 1.4 -- -- 88
2019-06-06 21:00:00 12.8 40 Sur 63 Sur 0 -- -- 82
2019-06-06 20:00:00 15.2 39 Sur 61 Sudoeste 0 -- -- 64
2019-06-06 19:00:00 15.8 39 Sur 62 Sur 0 -- -- 58
2019-06-06 18:00:00 17.2 42 Sur 65 Sur 0 -- -- 49
2019-06-06 17:00:00 17.6 42 Sur 62 Sur 0 -- -- 47
2019-06-06 16:00:00 17.7 39 Sur 61 Sur 0 -- -- 47
2019-06-06 15:00:00 17.8 39 Sur 55 Sur 0 -- -- 45
2019-06-06 14:00:00 16.7 32 Sur 50 Sur 0 -- -- 46
2019-06-06 13:00:00 15.4 26 Sur 39 Sudoeste 0 -- -- 45
2019-06-06 12:00:00 14.8 23 Sur 34 Sur 0 -- -- 43
2019-06-06 11:00:00 13 14 Sur 24 Sur 0 -- -- 56
2019-06-06 10:00:00 10.2 5 Sudeste 11 Sur 0 -- -- 67
2019-06-06 09:00:00 6 4 Sur 10 Sur 0 -- -- 96
2019-06-06 08:00:00 2.3 9 Sur 13 Sur 0 -- -- 94
2019-06-06 07:00:00 2.5 8 Sur 10 Sur 0 -- -- 91
2019-06-06 06:00:00 3.8 7 Sur 9 Sudeste 0 -- -- 89
2019-06-06 05:00:00 5.2 4 Oeste 12 Noroeste 0 -- -- 87
2019-06-06 04:00:00 5.5 8 Oeste 13 Oeste 0 -- -- 82
2019-06-06 03:00:00 6.4 4 Sudoeste 7 Sudoeste 0 -- -- 76
2019-06-06 02:00:00 6.7 2 Sur 11 Oeste 0 -- -- 72
2019-06-06 01:00:00 7.7 9 Oeste 12 Oeste 0 -- -- 68
2019-06-06 00:00:00 8.8 6 Noroeste 17 Noroeste 0 -- -- 64
2019-06-05 23:00:00 10.8 13 Noroeste 21 Noroeste 0 -- -- 59
2019-06-05 22:00:00 11.7 14 Noroeste 28 Noroeste 0 -- -- 54
2019-06-05 21:00:00 13.1 19 Noroeste 33 Noroeste 0 -- -- 49
2019-06-05 20:00:00 14 22 Noroeste 35 Oeste 0 -- -- 44
2019-06-05 19:00:00 15.7 21 Noroeste 30 Oeste 0 -- -- 41
2019-06-05 18:00:00 15.8 19 Noroeste 33 Noroeste 0 -- -- 40
2019-06-05 17:00:00 16.1 14 Noroeste 36 Noroeste 0 -- -- 42
2019-06-05 16:00:00 14.8 24 Noroeste 35 Noroeste 0 -- -- 48
2019-06-05 15:00:00 16.3 18 Noroeste 35 Noroeste 0 -- -- 42
2019-06-05 14:00:00 15 22 Noroeste 41 Noroeste 0 -- -- 43
2019-06-05 13:00:00 13.4 19 Noroeste 40 Noroeste 0 -- -- 51
2019-06-05 12:00:00 13.6 26 Noroeste 42 Noroeste 0 -- -- 53
2019-06-05 11:00:00 11 22 Noroeste 37 Oeste 0 -- -- 62
2019-06-05 10:00:00 9.9 21 Noroeste 33 Oeste 0 -- -- 69
2019-06-05 09:00:00 8.2 14 Noroeste 21 Noroeste 0 -- -- 84
2019-06-05 08:00:00 6.5 12 Noroeste 21 Noroeste 0 -- -- 89
2019-06-05 07:00:00 6.1 12 Oeste 21 Oeste 0 -- -- 90
2019-06-05 06:00:00 6.4 14 Noroeste 27 Noroeste 0 -- -- 88
2019-06-05 05:00:00 6.9 14 Noroeste 23 Oeste 0 -- -- 86
2019-06-05 04:00:00 7.2 10 Noroeste 23 Oeste 0 -- -- 84
2019-06-05 03:00:00 8.1 14 Noroeste 24 Noroeste 0 -- -- 82
2019-06-05 02:00:00 8.7 17 Noroeste 29 Noroeste 0 -- -- 80
2019-06-05 01:00:00 9.8 16 Noroeste 29 Noroeste 0 -- -- 73
2019-06-05 00:00:00 11.1 21 Noroeste 33 Noroeste 0 -- -- 69
2019-06-04 23:00:00 12.4 22 Noroeste 35 Noroeste 0 -- -- 58
2019-06-04 22:00:00 13.7 24 Noroeste 37 Noroeste 0 -- -- 58
2019-06-04 21:00:00 14.6 23 Noroeste 34 Noroeste 0 -- -- 60
2019-06-04 20:00:00 17.1 15 Oeste 27 Oeste 0 -- -- 57
2019-06-04 19:00:00 17.4 17 Oeste 33 Oeste 0 -- -- 56
2019-06-04 18:00:00 18.8 22 Oeste 40 Noroeste 0 -- -- 53
2019-06-04 17:00:00 17.2 25 Noroeste 52 Noroeste 0 -- -- 64
2019-06-04 16:00:00 20.4 17 Noroeste 49 Norte 0 -- -- 55
2019-06-04 15:00:00 21.7 14 Sudoeste 29 Sur 0 -- -- 45
2019-06-04 14:00:00 21.3 15 Sudoeste 28 Oeste 0 -- -- 44
2019-06-04 13:00:00 19.3 12 Sudoeste 24 Sur 0 -- -- 52
2019-06-04 12:00:00 17.9 8 Sudoeste 22 Oeste 0 -- -- 58
2019-06-04 11:00:00 16 10 Noroeste 18 Noroeste 0 -- -- 65
2019-06-04 10:00:00 14.7 8 Oeste 18 Noroeste 0 -- -- 71
2019-06-04 09:00:00 13.1 11 Noroeste 17 Noroeste 0 -- -- 78
2019-06-04 08:00:00 11.5 6 Norte 13 Noroeste 0 -- -- 88
2019-06-04 07:00:00 11.6 10 Norte 19 Noroeste 0 -- -- 88
2019-06-04 06:00:00 12.1 11 Noroeste 16 Noroeste 0 -- -- 88
2019-06-04 05:00:00 12.7 8 Norte 13 Noroeste 0 -- -- 90
2019-06-04 04:00:00 12.1 5 Norte 7 Noroeste 0 -- -- 90
2019-06-04 03:00:00 12 0 Calma 5 Este 0 -- -- 86
2019-06-04 02:00:00 13.2 2 Este 6 Noroeste 0 -- -- 83
2019-06-04 01:00:00 14.4 5 Este 8 Noroeste 0 -- -- 80
2019-06-04 00:00:00 15.5 6 Noroeste 15 Norte 0 -- -- 77
2019-06-03 23:00:00 17.4 8 Norte 18 Noroeste 0 -- -- 70
2019-06-03 22:00:00 20.1 12 Noroeste 17 Noroeste 0 -- -- 61
2019-06-03 21:00:00 24 12 Oeste 33 Sudoeste 0 -- -- 52
2019-06-03 20:00:00 26.3 24 Sur 37 Sur 0 -- -- 36
2019-06-03 19:00:00 27.5 18 Sudoeste 44 Sur 0 -- -- 35
2019-06-03 18:00:00 28.4 24 Sudoeste 37 Sudoeste 0 -- -- 28
2019-06-03 17:00:00 28.7 23 Sur 39 Sur 0 -- -- 26
2019-06-03 16:00:00 28 19 Sudoeste 39 Sur 0 -- -- 26
2019-06-03 15:00:00 27.2 17 Sur 32 Sur 0 -- -- 27
2019-06-03 14:00:00 26.7 15 Sudoeste 27 Sudoeste 0 -- -- 29
2019-06-03 13:00:00 25.3 9 Sur 18 Sur 0 -- -- 28
2019-06-03 12:00:00 23 5 Noroeste 14 Oeste 0 -- -- 36
2019-06-03 11:00:00 21.5 3 Nordeste 11 Norte 0 -- -- 39
2019-06-03 10:00:00 19 3 Norte 6 Sudeste 0 -- -- 41
2019-06-03 09:00:00 14.4 5 Sur 12 Sur 0 -- -- 67
2019-06-03 08:00:00 9.3 10 Sur 15 Sur 0 -- -- 83
2019-06-03 07:00:00 9.5 10 Sur 14 Sudeste 0 -- -- 82
2019-06-03 06:00:00 10.8 8 Sur 10 Sur 0 -- -- 79
2019-06-03 05:00:00 11.8 4 Sur 6 Sur 0 -- -- 73
2019-06-03 04:00:00 15.1 2 Noroeste 10 Oeste 0 -- -- 56
2019-06-03 03:00:00 15.8 6 Noroeste 12 Oeste 0 -- -- 54
2019-06-03 02:00:00 16.9 2 Norte 8 Noroeste 0 -- -- 54
2019-06-03 01:00:00 18.2 6 Noroeste 13 Noroeste 0 -- -- 49
2019-06-03 00:00:00 19.3 9 Noroeste 11 Noroeste 0 -- -- 44
2019-06-02 23:00:00 20.8 10 Noroeste 21 Noroeste 0 -- -- 40
2019-06-02 22:00:00 22.4 7 Noroeste 24 Oeste 0 -- -- 38
2019-06-02 21:00:00 24.6 15 Noroeste 30 Noroeste 0 -- -- 32
2019-06-02 20:00:00 27.2 18 Noroeste 30 Noroeste 0 -- -- 25
2019-06-02 19:00:00 28.7 22 Oeste 33 Noroeste 0 -- -- 23
2019-06-02 18:00:00 29.9 17 Oeste 32 Oeste 0 -- -- 23
2019-06-02 17:00:00 30.3 11 Sudoeste 35 Oeste 0 -- -- 23
2019-06-02 16:00:00 30.4 16 Oeste 32 Sur 0 -- -- 22
2019-06-02 15:00:00 30.6 13 Oeste 35 Noroeste 0 -- -- 26
2019-06-02 14:00:00 29.7 13 Sudoeste 34 Oeste 0 -- -- 25
2019-06-02 13:00:00 28.8 9 Noroeste 20 Noroeste 0 -- -- 23
2019-06-02 12:00:00 27.8 4 Este 8 Este 0 -- -- 26
2019-06-02 11:00:00 24.6 4 Nordeste 8 Norte 0 -- -- 32
2019-06-02 10:00:00 21.4 3 Norte 6 Sudeste 0 -- -- 37
2019-06-02 09:00:00 15.2 6 Sur 13 Sur 0 -- -- 62
2019-06-02 08:00:00 11.5 10 Sur 15 Sur 0 -- -- 74
2019-06-02 07:00:00 11.5 7 Sur 13 Sur 0 -- -- 72
2019-06-02 06:00:00 11.6 11 Sur 15 Sur 0 -- -- 73
2019-06-02 05:00:00 12.3 10 Sur 12 Sur 0 -- -- 74
2019-06-02 04:00:00 13.5 8 Sur 13 Sur 0 -- -- 69
2019-06-02 03:00:00 15 7 Sur 10 Sur 0 -- -- 65
2019-06-02 02:00:00 17.9 3 Sur 7 Sur 0 -- -- 47
2019-06-02 01:00:00 18.8 3 Sur 8 Noroeste 0 -- -- 43
2019-06-02 00:00:00 21.3 8 Noroeste 14 Noroeste 0 -- -- 37
2019-06-01 23:00:00 23.2 11 Noroeste 19 Noroeste 0 -- -- 36
2019-06-01 22:00:00 24.7 8 Oeste 14 Oeste 0 -- -- 33
2019-06-01 21:00:00 28.5 10 Sur 25 Sur 0 -- -- 28
2019-06-01 20:00:00 30.2 16 Sur 26 Sur 0 -- -- 25
2019-06-01 19:00:00 31 17 Sudoeste 27 Sudoeste 0 -- -- 24
2019-06-01 18:00:00 31 16 Sur 30 Sur 0 -- -- 24
2019-06-01 17:00:00 31.2 12 Sur 31 Sur 0 -- -- 24
2019-06-01 16:00:00 31.2 17 Sudoeste 30 Sur 0 -- -- 24
2019-06-01 15:00:00 31 12 Sur 23 Sur 0 -- -- 25
2019-06-01 14:00:00 30.1 12 Sudoeste 26 Sudoeste 0 -- -- 24
2019-06-01 13:00:00 29.1 12 Sur 24 Sur 0 -- -- 26
2019-06-01 12:00:00 27.3 12 Sudeste 25 Sur 0 -- -- 31
2019-06-01 11:00:00 26 12 Sur 21 Sur 0 -- -- 31
2019-06-01 10:00:00 23.1 13 Sur 20 Sur 0 -- -- 39
2019-06-01 09:00:00 16.3 10 Sur 14 Sur 0 -- -- 66
2019-06-01 08:00:00 12.2 8 Sur 19 Sur 0 -- -- 77
2019-06-01 07:00:00 11 12 Sur 18 Sudeste 0 -- -- 79
2019-06-01 06:00:00 11.9 9 Sur 18 Sur 0 -- -- 74
2019-06-01 05:00:00 12.2 12 Sur 15 Sudeste 0 -- -- 71
2019-06-01 04:00:00 13.3 12 Sur 17 Sur 0 -- -- 68
2019-06-01 03:00:00 13.9 9 Sur 12 Sur 0 -- -- 69
2019-06-01 02:00:00 16.3 2 Sudoeste 10 Sudoeste 0 -- -- 55
2019-06-01 01:00:00 17.1 7 Sudoeste 12 Sur 0 -- -- 47
2019-06-01 00:00:00 19.3 9 Sur 12 Sur 0 -- -- 41
2019-05-31 23:00:00 22.9 2 Nordeste 7 Nordeste 0 -- -- 32
2019-05-31 22:00:00 25.8 2 Norte 13 Norte 0 -- -- 27
2019-05-31 21:00:00 28.3 9 Norte 21 Norte 0 -- -- 23
2019-05-31 20:00:00 29.4 9 Norte 19 Nordeste 0 -- -- 22
2019-05-31 19:00:00 30 6 Nordeste 23 Noroeste 0 -- -- 22
2019-05-31 18:00:00 30.5 6 Norte 24 Norte 0 -- -- 21
2019-05-31 17:00:00 30.2 12 Norte 24 Nordeste 0 -- -- 22
2019-05-31 16:00:00 29.7 10 Norte 22 Nordeste 0 -- -- 24
2019-05-31 15:00:00 29.4 6 Este 22 Norte 0 -- -- 23
2019-05-31 14:00:00 28.5 9 Noroeste 19 Norte 0 -- -- 24
2019-05-31 13:00:00 27.5 6 Noroeste 14 Norte 0 -- -- 29
2019-05-31 12:00:00 25 7 Norte 13 Noroeste 0 -- -- 34
2019-05-31 11:00:00 22 6 Norte 11 Norte 0 -- -- 39
2019-05-31 10:00:00 18.7 6 Norte 10 Norte 0 -- -- 46
2019-05-31 09:00:00 17 4 Norte 6 Sudoeste 0 -- -- 49
2019-05-31 08:00:00 12 0 Calma 14 Sur 0 -- -- 62
2019-05-31 07:00:00 9.8 12 Sur 22 Sur 0 -- -- 70
2019-05-31 06:00:00 9.5 12 Sur 15 Sur 0 -- -- 71
2019-05-31 05:00:00 10.8 9 Sudeste 14 Sudeste 0 -- -- 67
2019-05-31 04:00:00 12.3 5 Sur 13 Sur 0 -- -- 59
2019-05-31 03:00:00 13.1 11 Sur 19 Sur 0 -- -- 56
2019-05-31 02:00:00 13.6 11 Sur 17 Sudeste 0 -- -- 57
2019-05-31 01:00:00 15.7 9 Sudeste 13 Sur 0 -- -- 48
2019-05-31 00:00:00 20.4 9 Este 12 Este 0 -- -- 32
2019-05-30 23:00:00 21.5 5 Nordeste 12 Nordeste 0 -- -- 31
2019-05-30 22:00:00 23.9 7 Nordeste 21 Norte 0 -- -- 27
2019-05-30 21:00:00 26.9 12 Nordeste 26 Nordeste 0 -- -- 23
2019-05-30 20:00:00 28 15 Nordeste 32 Norte 0 -- -- 20
2019-05-30 19:00:00 28.7 19 Norte 31 Norte 0 -- -- 18
2019-05-30 18:00:00 29 16 Nordeste 37 Nordeste 0 -- -- 19
2019-05-30 17:00:00 28.8 15 Norte 33 Norte 0 -- -- 21
2019-05-30 16:00:00 28.6 15 Norte 33 Norte 0 -- -- 22
2019-05-30 15:00:00 27.6 17 Norte 31 Norte 0 -- -- 22
2019-05-30 14:00:00 26.7 15 Norte 27 Nordeste 0 -- -- 26
2019-05-30 13:00:00 25.5 16 Norte 29 Norte 0 -- -- 28
2019-05-30 12:00:00 23.5 16 Norte 28 Norte 0 -- -- 33
2019-05-30 11:00:00 20.1 13 Norte 19 Norte 0 -- -- 43
2019-05-30 10:00:00 16.3 9 Norte 13 Norte 0 -- -- 51
2019-05-30 09:00:00 13 9 Norte 12 Norte 0 -- -- 60
2019-05-30 08:00:00 10.5 3 Noroeste 9 Noroeste 0 -- -- 66
2019-05-30 07:00:00 8.2 3 Norte 11 Sur 0 -- -- 74
2019-05-30 06:00:00 11.3 0 Calma 6 Norte 0 -- -- 60
2019-05-30 05:00:00 11.5 3 Norte 7 Nordeste 0 -- -- 59
2019-05-30 04:00:00 12.3 3 Norte 7 Nordeste 0 -- -- 58
2019-05-30 03:00:00 12.7 0 Calma 4 Este 0 -- -- 55
2019-05-30 02:00:00 13.7 4 Este 11 Este 0 -- -- 50
2019-05-30 01:00:00 14.8 6 Este 14 Este 0 -- -- 47
2019-05-30 00:00:00 16.5 8 Nordeste 15 Este 0 -- -- 46
2019-05-29 23:00:00 18.3 10 Nordeste 21 Nordeste 0 -- -- 41
2019-05-29 22:00:00 20.3 12 Nordeste 29 Nordeste 0 -- -- 35
2019-05-29 21:00:00 22.9 18 Nordeste 33 Nordeste 0 -- -- 31
2019-05-29 20:00:00 24.3 17 Nordeste 32 Norte 0 -- -- 31
2019-05-29 19:00:00 24.7 20 Nordeste 40 Norte 0 -- -- 30
2019-05-29 18:00:00 24.8 22 Norte 33 Norte 0 -- -- 31
2019-05-29 17:00:00 24.8 19 Nordeste 36 Norte 0 -- -- 28
2019-05-29 16:00:00 24.4 17 Nordeste 39 Nordeste 0 -- -- 30
2019-05-29 15:00:00 23.6 20 Nordeste 40 Nordeste 0 -- -- 32
2019-05-29 14:00:00 22.3 21 Nordeste 40 Norte 0 -- -- 35
2019-05-29 13:00:00 20.4 21 Norte 37 Nordeste 0 -- -- 38
2019-05-29 12:00:00 18.6 19 Nordeste 41 Norte 0 -- -- 41
2019-05-29 11:00:00 16.5 24 Nordeste 37 Norte 0 -- -- 45
2019-05-29 10:00:00 15.1 16 Nordeste 36 Norte 0 -- -- 49
2019-05-29 09:00:00 11.8 17 Norte 26 Norte 0 -- -- 57
2019-05-29 08:00:00 8.8 15 Norte 25 Norte 0 -- -- 66
2019-05-29 07:00:00 9.1 18 Norte 28 Norte 0 -- -- 62
2019-05-29 06:00:00 10 15 Norte 25 Norte 0 -- -- 56
2019-05-29 05:00:00 10.7 10 Norte 19 Norte 0 -- -- 54
2019-05-29 04:00:00 11.4 7 Norte 12 Norte 0 -- -- 52
2019-05-29 03:00:00 12.9 8 Norte 15 Nordeste 0 -- -- 53
2019-05-29 02:00:00 13.9 8 Norte 22 Norte 0 -- -- 53
2019-05-29 01:00:00 14.4 9 Norte 27 Nordeste 0 -- -- 47
2019-05-29 00:00:00 17.4 18 Nordeste 31 Nordeste 0 -- -- 38
2019-05-28 23:00:00 18.7 10 Nordeste 18 Nordeste 0 -- -- 36
2019-05-28 22:00:00 19.7 10 Nordeste 21 Nordeste 0 -- -- 34
2019-05-28 21:00:00 22 14 Nordeste 32 Norte 0 -- -- 30
2019-05-28 20:00:00 22.9 21 Norte 32 Nordeste 0 -- -- 30
2019-05-28 19:00:00 23.5 20 Nordeste 35 Norte 0 -- -- 29
2019-05-28 18:00:00 23.8 21 Nordeste 37 Norte 0 -- -- 29
2019-05-28 17:00:00 23.6 19 Norte 37 Norte 0 -- -- 29
2019-05-28 16:00:00 23.2 20 Norte 39 Norte 0 -- -- 28
2019-05-28 15:00:00 21.7 24 Norte 37 Norte 0 -- -- 30
2019-05-28 14:00:00 20.6 23 Norte 39 Norte 0 -- -- 32
2019-05-28 13:00:00 19.3 22 Norte 36 Norte 0 -- -- 33
2019-05-28 12:00:00 18.3 21 Norte 35 Norte 0 -- -- 38
2019-05-28 11:00:00 16.8 19 Nordeste 30 Nordeste 0 -- -- 46
2019-05-28 10:00:00 14.2 18 Norte 28 Norte 0 -- -- 62
2019-05-28 09:00:00 11.9 12 Norte 22 Norte 0 -- -- 71
2019-05-28 08:00:00 10.1 14 Norte 25 Norte 0 -- -- 76
2019-05-28 07:00:00 10 15 Norte 22 Norte 0 -- -- 79
2019-05-28 06:00:00 11.1 11 Norte 21 Norte 0 -- -- 78
2019-05-28 05:00:00 12.4 11 Norte 18 Norte 0 -- -- 74
2019-05-28 04:00:00 13 10 Norte 16 Norte 0 -- -- 72
2019-05-28 03:00:00 13.5 9 Norte 14 Noroeste 0 -- -- 66
2019-05-28 02:00:00 13.6 8 Noroeste 10 Noroeste 0 -- -- 65
2019-05-28 01:00:00 15.2 5 Noroeste 21 Noroeste 0 -- -- 60
2019-05-28 00:00:00 16.8 14 Noroeste 19 Noroeste 0 -- -- 56
2019-05-27 23:00:00 17.9 8 Noroeste 13 Noroeste 0 -- -- 52
2019-05-27 22:00:00 20.3 11 Norte 23 Norte 0 -- -- 45
2019-05-27 21:00:00 23 17 Norte 28 Noroeste 0 -- -- 37
2019-05-27 20:00:00 24.2 19 Norte 37 Noroeste 0 -- -- 38
2019-05-27 19:00:00 24.7 17 Norte 30 Norte 0 -- -- 35
2019-05-27 18:00:00 25.1 23 Noroeste 39 Noroeste 0 -- -- 35
2019-05-27 17:00:00 25.1 17 Norte 36 Noroeste 0 -- -- 36
2019-05-27 16:00:00 24.8 23 Norte 40 Noroeste 0 -- -- 38
2019-05-27 15:00:00 24.2 22 Norte 37 Norte 0 -- -- 38
2019-05-27 14:00:00 24.1 18 Noroeste 27 Norte 0 -- -- 41
2019-05-27 13:00:00 23 10 Norte 23 Noroeste 0 -- -- 43
2019-05-27 12:00:00 20.9 10 Norte 20 Norte 0 -- -- 51
2019-05-27 11:00:00 19 10 Norte 18 Norte 0 -- -- 56
2019-05-27 10:00:00 16.8 8 Norte 19 Norte 0 -- -- 62
2019-05-27 09:00:00 15.5 6 Norte 16 Noroeste 0 -- -- 73
2019-05-27 08:00:00 10.9 3 Sur 8 Sur 0 -- -- 88
2019-05-27 07:00:00 10.2 4 Sur 8 Sur 0 -- -- 86
2019-05-27 06:00:00 10.7 5 Sur 7 Sur 0 -- -- 84
2019-05-27 05:00:00 11.8 4 Sudoeste 10 Sudeste 0 -- -- 82
2019-05-27 04:00:00 13 5 Sur 9 Sur 0 -- -- 75
2019-05-27 03:00:00 15.7 6 Sudoeste 15 Oeste 0 -- -- 65
2019-05-27 02:00:00 16.5 12 Oeste 17 Oeste 0 -- -- 62
2019-05-27 01:00:00 17.6 8 Noroeste 16 Noroeste 0 -- -- 49
2019-05-27 00:00:00 18.2 11 Noroeste 17 Oeste 0 -- -- 49
2019-05-26 23:00:00 19.7 0 Calma 4 Noroeste 0 -- -- 47
2019-05-26 22:00:00 21.6 4 Noroeste 16 Norte 0 -- -- 42
2019-05-26 21:00:00 24.2 10 Norte 24 Norte 0 -- -- 36
2019-05-26 20:00:00 25.1 18 Norte 32 Nordeste 0 -- -- 32
2019-05-26 19:00:00 25.5 18 Norte 36 Norte 0 -- -- 32
2019-05-26 18:00:00 25.6 16 Norte 30 Norte 0 -- -- 32
2019-05-26 17:00:00 25.2 19 Norte 32 Noroeste 0 -- -- 34
2019-05-26 16:00:00 24.3 17 Norte 33 Norte 0 -- -- 37
2019-05-26 15:00:00 23.3 16 Norte 33 Norte 0 -- -- 40
2019-05-26 14:00:00 21.9 18 Norte 37 Norte 0 -- -- 41
2019-05-26 13:00:00 20.5 18 Norte 35 Norte 0 -- -- 44
2019-05-26 12:00:00 19 15 Norte 31 Nordeste 0 -- -- 49
2019-05-26 11:00:00 17 16 Norte 30 Norte 0 -- -- 53
2019-05-26 10:00:00 15.7 17 Norte 28 Norte 0 -- -- 55
2019-05-26 09:00:00 12 10 Norte 16 Norte 0 -- -- 62
2019-05-26 08:00:00 8.7 8 Norte 13 Norte 0 -- -- 68
2019-05-26 07:00:00 8.2 7 Norte 9 Norte 0 -- -- 68
2019-05-26 06:00:00 9.2 3 Norte 11 Norte 0 -- -- 66
2019-05-26 05:00:00 9.7 6 Norte 11 Noroeste 0 -- -- 66
2019-05-26 04:00:00 10.9 4 Norte 11 Nordeste 0 -- -- 61
2019-05-26 03:00:00 11.3 0 Calma 11 Norte 0 -- -- 58
2019-05-26 02:00:00 13.4 5 Norte 9 Norte 0 -- -- 52
2019-05-26 01:00:00 14 2 Norte 4 Noroeste 0 -- -- 49
2019-05-26 00:00:00 15.1 2 Sudoeste 13 Nordeste 0 -- -- 47
2019-05-25 23:00:00 16.5 6 Norte 10 Nordeste 0 -- -- 43
2019-05-25 22:00:00 18.1 8 Norte 25 Norte 0 -- -- 39
2019-05-25 21:00:00 20.5 18 Norte 33 Norte 0 -- -- 34
2019-05-25 20:00:00 21.5 17 Norte 32 Norte 0 -- -- 32
2019-05-25 19:00:00 22.2 17 Norte 34 Norte 0 -- -- 31
2019-05-25 18:00:00 22.3 20 Norte 35 Norte 0 -- -- 31
2019-05-25 17:00:00 22 21 Norte 37 Norte 0 -- -- 32
2019-05-25 16:00:00 21.1 18 Norte 38 Nordeste 0 -- -- 36
2019-05-25 15:00:00 20.1 21 Norte 42 Nordeste 0 -- -- 38
2019-05-25 14:00:00 19.3 23 Norte 38 Nordeste 0 -- -- 40
2019-05-25 13:00:00 18 23 Norte 39 Nordeste 0 -- -- 44
2019-05-25 12:00:00 16.8 22 Nordeste 40 Nordeste 0 -- -- 48
2019-05-25 11:00:00 15.2 25 Nordeste 43 Nordeste 0 -- -- 52
2019-05-25 10:00:00 13.9 19 Nordeste 43 Nordeste 0 -- -- 60
2019-05-25 09:00:00 11.5 17 Nordeste 30 Nordeste 0 -- -- 70
2019-05-25 08:00:00 8.7 17 Nordeste 31 Nordeste 0 -- -- 82
2019-05-25 07:00:00 8.8 17 Nordeste 33 Nordeste 0 -- -- 80
2019-05-25 06:00:00 8.9 16 Nordeste 32 Norte 0 -- -- 79
2019-05-25 05:00:00 9.4 17 Nordeste 32 Norte 0 -- -- 76
2019-05-25 04:00:00 10.1 16 Norte 34 Norte 0 -- -- 72
2019-05-25 03:00:00 10.9 16 Norte 29 Nordeste 0 -- -- 65
2019-05-25 02:00:00 12.5 14 Nordeste 30 Nordeste 0 -- -- 57
2019-05-25 01:00:00 13.9 15 Nordeste 30 Norte 0 -- -- 53
2019-05-25 00:00:00 14.9 13 Norte 22 Norte 0 -- -- 41
2019-05-24 23:00:00 16.5 12 Nordeste 21 Nordeste 0 -- -- 36
2019-05-24 22:00:00 17.8 9 Nordeste 29 Nordeste 0 -- -- 35
2019-05-24 21:00:00 20.2 18 Norte 35 Norte 0 -- -- 30
2019-05-24 20:00:00 20.8 23 Norte 37 Norte 0 -- -- 26
2019-05-24 19:00:00 21.6 19 Nordeste 37 Nordeste 0 -- -- 28
2019-05-24 18:00:00 21.6 19 Nordeste 40 Norte 0 -- -- 29
2019-05-24 17:00:00 21.3 19 Norte 41 Norte 0 -- -- 35
2019-05-24 16:00:00 21.2 21 Norte 47 Norte 0 -- -- 36
2019-05-24 15:00:00 20.2 24 Norte 48 Norte 0 -- -- 41
2019-05-24 14:00:00 19.4 19 Norte 40 Norte 0 -- -- 42
2019-05-24 13:00:00 18.5 22 Nordeste 42 Norte 0 -- -- 45
2019-05-24 12:00:00 16.7 24 Nordeste 44 Nordeste 0 -- -- 54
2019-05-24 11:00:00 15.2 20 Norte 37 Nordeste 0 -- -- 63
2019-05-24 10:00:00 13.7 22 Norte 41 Norte 0 -- -- 70
2019-05-24 09:00:00 11 18 Norte 29 Norte 0 -- -- 78
2019-05-24 08:00:00 8.8 11 Norte 17 Noroeste 0 -- -- 81
2019-05-24 07:00:00 8.2 10 Norte 14 Norte 0 -- -- 86
2019-05-24 06:00:00 9 9 Norte 12 Norte 0 -- -- 84
2019-05-24 05:00:00 9.8 6 Norte 14 Norte 0 -- -- 80
2019-05-24 04:00:00 10.5 11 Norte 17 Norte 0 -- -- 79
2019-05-24 03:00:00 11.1 8 Norte 19 Noroeste 0 -- -- 80
2019-05-24 02:00:00 11.8 9 Noroeste 15 Noroeste 0 -- -- 78
2019-05-24 01:00:00 13.2 7 Norte 13 Noroeste 0 -- -- 72
2019-05-24 00:00:00 13.9 9 Noroeste 22 Noroeste 0 -- -- 68
2019-05-23 23:00:00 15.1 18 Noroeste 26 Noroeste 0 -- -- 64
2019-05-23 22:00:00 16.4 17 Noroeste 36 Norte 0 -- -- 62
2019-05-23 21:00:00 18.6 25 Noroeste 35 Norte 0 -- -- 57
2019-05-23 20:00:00 20.4 19 Noroeste 31 Noroeste 0 -- -- 48
2019-05-23 19:00:00 21.6 21 Noroeste 32 Noroeste 0 -- -- 41
2019-05-23 18:00:00 22.9 11 Noroeste 26 Oeste 0 -- -- 33
2019-05-23 17:00:00 23.7 14 Oeste 32 Noroeste 0 -- -- 35
2019-05-23 16:00:00 23.5 14 Oeste 27 Oeste 0 -- -- 37
2019-05-23 15:00:00 23.1 11 Oeste 22 Oeste 0 -- -- 38
2019-05-23 14:00:00 21.9 14 Noroeste 24 Norte 0 -- -- 46
2019-05-23 13:00:00 20.5 9 Noroeste 26 Norte 0 -- -- 53
2019-05-23 12:00:00 19.1 9 Noroeste 19 Noroeste 0 -- -- 58
2019-05-23 11:00:00 16.9 10 Norte 17 Norte 0 -- -- 65
2019-05-23 10:00:00 14.2 3 Noroeste 8 Sudeste 0 -- -- 78
2019-05-23 09:00:00 11.8 4 Sur 8 Sudeste 0 -- -- 88
2019-05-23 08:00:00 10 3 Noroeste 14 Sudoeste 0 -- -- 93
2019-05-23 07:00:00 9.3 3 Sudeste 10 Sur 0 -- -- 91
2019-05-23 06:00:00 9.5 7 Sur 12 Sur 0 -- -- 92
2019-05-23 05:00:00 9.8 8 Sur 10 Sur 0 -- -- 90
2019-05-23 04:00:00 11.3 6 Sur 8 Sur 0 -- -- 83
2019-05-23 03:00:00 12.7 0 Calma 4 Noroeste 0 -- -- 81
2019-05-23 02:00:00 13.1 0 Calma 4 Este 0 -- -- 82
2019-05-23 01:00:00 14.8 2 Este 5 Sudeste 0 -- -- 75
2019-05-23 00:00:00 15.8 3 Oeste 23 Oeste 0 -- -- 72
2019-05-22 23:00:00 17.3 14 Noroeste 26 Oeste 0 -- -- 66
2019-05-22 22:00:00 18.9 13 Oeste 20 Noroeste 0 -- -- 60
2019-05-22 21:00:00 21.6 10 Sudoeste 13 Sudoeste 0 -- -- 41
2019-05-22 20:00:00 22.9 9 Sudoeste 22 Sur 0 -- -- 36
2019-05-22 19:00:00 25 12 Sur 27 Sur 0 -- -- 31
2019-05-22 18:00:00 25.3 17 Sur 27 Sur 0 -- -- 30
2019-05-22 17:00:00 25.4 6 Sudoeste 24 Sudoeste 0 -- -- 31
2019-05-22 16:00:00 24.8 13 Sur 30 Sur 0 -- -- 33
2019-05-22 15:00:00 24.4 12 Sur 27 Sur 0 -- -- 36
2019-05-22 14:00:00 23.4 13 Sur 26 Sur 0 -- -- 39
2019-05-22 13:00:00 23 9 Sudoeste 21 Sur 0 -- -- 40
2019-05-22 12:00:00 20.9 5 Este 11 Sudoeste 0 -- -- 45
2019-05-22 11:00:00 18 4 Oeste 10 Noroeste 0 -- -- 62
2019-05-22 10:00:00 15.7 4 Norte 8 Norte 0 -- -- 74
2019-05-22 09:00:00 10.5 7 Sur 11 Sur 0 -- -- 90
2019-05-22 08:00:00 7 8 Sur 10 Sur 0 -- -- 93
2019-05-22 07:00:00 6.3 8 Sur 13 Sur 0 -- -- 92
2019-05-22 06:00:00 6.8 10 Sur 14 Sudeste 0 -- -- 90
2019-05-22 05:00:00 7.8 9 Sur 11 Sur 0 -- -- 87
2019-05-22 04:00:00 8.9 3 Sudeste 11 Sudeste 0 -- -- 83
2019-05-22 03:00:00 10.3 5 Sur 10 Sur 0 -- -- 81
2019-05-22 02:00:00 11 8 Sur 12 Sur 0 -- -- 75
2019-05-22 01:00:00 14.4 5 Norte 10 Norte 0 -- -- 71
2019-05-22 00:00:00 14.6 5 Noroeste 14 Noroeste 0 -- -- 58
2019-05-21 23:00:00 16.4 4 Nordeste 7 Nordeste 0 -- -- 47
2019-05-21 22:00:00 18.3 6 Norte 15 Norte 0 -- -- 43
2019-05-21 21:00:00 20.6 10 Norte 19 Norte 0 -- -- 38
2019-05-21 20:00:00 21.6 11 Norte 19 Noroeste 0 -- -- 35
2019-05-21 19:00:00 22.4 6 Nordeste 19 Norte 0 -- -- 32
2019-05-21 18:00:00 22.2 8 Norte 19 Noroeste 0 -- -- 32
2019-05-21 17:00:00 22.5 7 Norte 22 Nordeste 0 -- -- 33
2019-05-21 16:00:00 21.4 10 Norte 22 Noroeste 0 -- -- 35
2019-05-21 15:00:00 20.4 9 Norte 27 Noroeste 0 -- -- 37
2019-05-21 14:00:00 19.4 8 Norte 22 Noroeste 0 -- -- 40
2019-05-21 13:00:00 17.8 10 Norte 20 Nordeste 0 -- -- 49
2019-05-21 12:00:00 16 8 Norte 16 Norte 0 -- -- 55
2019-05-21 11:00:00 13.8 8 Nordeste 14 Norte 0 -- -- 63
2019-05-21 10:00:00 12 7 Norte 12 Norte 0 -- -- 70
2019-05-21 09:00:00 9.5 0 Calma 4 Nordeste 0 -- -- 87
2019-05-21 08:00:00 5 3 Sudoeste 10 Sur 0 -- -- 94
2019-05-21 07:00:00 5.6 0 Calma 5 Sudeste 0 -- -- 89
2019-05-21 06:00:00 5.7 3 Sur 8 Sur 0 -- -- 92
2019-05-21 05:00:00 6.3 2 Sudeste 9 Sur 0 -- -- 88
2019-05-21 04:00:00 6.9 4 Oeste 6 Oeste 0 -- -- 84
2019-05-21 03:00:00 8.2 0 Calma 7 Oeste 0 -- -- 79
2019-05-21 02:00:00 9.7 4 Noroeste 10 Noroeste 0 -- -- 74
2019-05-21 01:00:00 10.2 10 Noroeste 17 Noroeste 0 -- -- 72
2019-05-21 00:00:00 11.1 10 Noroeste 15 Noroeste 0 -- -- 64
2019-05-20 23:00:00 11.9 10 Noroeste 15 Oeste 0 -- -- 55
2019-05-20 22:00:00 13.4 9 Oeste 18 Oeste 0 -- -- 49
2019-05-20 21:00:00 15.8 14 Noroeste 24 Norte 0 -- -- 45
2019-05-20 20:00:00 15.7 19 Noroeste 36 Noroeste 0 -- -- 46
2019-05-20 19:00:00 17.9 14 Noroeste 26 Noroeste 0 -- -- 40
2019-05-20 18:00:00 19 14 Oeste 26 Oeste 0 -- -- 39
2019-05-20 17:00:00 18.7 13 Oeste 29 Noroeste 0 -- -- 40
2019-05-20 16:00:00 18.7 15 Noroeste 33 Oeste 0 -- -- 35
2019-05-20 15:00:00 18.6 15 Oeste 28 Oeste 0 -- -- 38
2019-05-20 14:00:00 17.4 9 Noroeste 26 Noroeste 0 -- -- 43
2019-05-20 13:00:00 15.3 6 Norte 18 Noroeste 0 -- -- 50
2019-05-20 12:00:00 14.2 10 Norte 19 Norte 0 -- -- 54
2019-05-20 11:00:00 12.5 8 Noroeste 14 Noroeste 0 -- -- 64
2019-05-20 10:00:00 10.3 6 Norte 11 Norte 0 -- -- 75
2019-05-20 09:00:00 7 2 Sur 9 Sudoeste 0 -- -- 91
2019-05-20 08:00:00 4.5 6 Sudoeste 10 Sudoeste 0 -- -- 93
2019-05-20 07:00:00 3.2 6 Sur 12 Sudeste 0 -- -- 92
2019-05-20 06:00:00 3.5 9 Sur 12 Sudeste 0 -- -- 90
2019-05-20 05:00:00 3.6 6 Sur 10 Sur 0 -- -- 88
2019-05-20 04:00:00 5.3 0 Calma 7 Sur 0 -- -- 83
2019-05-20 03:00:00 6.1 4 Sudoeste 7 Sudeste 0 -- -- 80
2019-05-20 02:00:00 6.8 3 Sudeste 6 Sudeste 0 -- -- 71
2019-05-20 01:00:00 8.4 3 Sudoeste 14 Noroeste 0 -- -- 68
2019-05-20 00:00:00 9.5 10 Noroeste 17 Oeste 0 -- -- 60
2019-05-19 23:00:00 11.3 11 Oeste 18 Oeste 0 -- -- 52
2019-05-19 22:00:00 12.5 10 Noroeste 20 Noroeste 0 -- -- 49
2019-05-19 21:00:00 14.3 14 Noroeste 28 Noroeste 0 -- -- 42
2019-05-19 20:00:00 16 15 Noroeste 32 Oeste 0 -- -- 41
2019-05-19 19:00:00 16.8 16 Noroeste 30 Noroeste 0 -- -- 38
2019-05-19 18:00:00 17.5 14 Noroeste 33 Noroeste 0 -- -- 36
2019-05-19 17:00:00 17.1 14 Noroeste 36 Oeste 0 -- -- 34
2019-05-19 16:00:00 16.7 20 Noroeste 33 Noroeste 0 -- -- 32
2019-05-19 15:00:00 15.9 15 Noroeste 30 Norte 0 -- -- 33
2019-05-19 14:00:00 14.9 12 Noroeste 24 Noroeste 0 -- -- 36
2019-05-19 13:00:00 13.3 12 Norte 22 Noroeste 0 -- -- 43
2019-05-19 12:00:00 11.9 7 Norte 19 Noroeste 0 -- -- 55
2019-05-19 11:00:00 9.8 8 Norte 17 Norte 0 -- -- 64
2019-05-19 10:00:00 8 9 Nordeste 14 Nordeste 0 -- -- 79
2019-05-19 09:00:00 4.3 5 Sur 9 Sur 0 -- -- 96
2019-05-19 08:00:00 1.3 7 Sur 9 Sur 0 -- -- 93
2019-05-19 07:00:00 2.4 5 Sur 8 Norte 0 -- -- 90
2019-05-19 06:00:00 3.4 5 Noroeste 11 Noroeste 0 -- -- 90
2019-05-19 05:00:00 3.8 6 Noroeste 10 Noroeste 0 -- -- 88
2019-05-19 04:00:00 4 2 Oeste 5 Oeste 0 -- -- 84
2019-05-19 03:00:00 5.7 2 Norte 6 Noroeste 0 -- -- 80
2019-05-19 02:00:00 6.3 5 Norte 14 Noroeste 0 -- -- 80
2019-05-19 01:00:00 6.5 8 Noroeste 16 Oeste 0 -- -- 77
2019-05-19 00:00:00 7.7 7 Oeste 18 Noroeste 0 -- -- 68
2019-05-18 23:00:00 8.5 11 Noroeste 20 Oeste 0 -- -- 61
2019-05-18 22:00:00 9.6 13 Oeste 18 Noroeste 0 -- -- 54
2019-05-18 21:00:00 11.8 15 Noroeste 42 Noroeste 0 -- -- 46
2019-05-18 20:00:00 13.3 18 Noroeste 35 Oeste 0 -- -- 42
2019-05-18 19:00:00 13.7 15 Norte 34 Norte 0 -- -- 42
2019-05-18 18:00:00 14.4 20 Noroeste 35 Noroeste 0 -- -- 41
2019-05-18 17:00:00 14.6 21 Noroeste 42 Noroeste 0 -- -- 40
2019-05-18 16:00:00 15 17 Noroeste 36 Noroeste 0 -- -- 39
2019-05-18 15:00:00 13.9 13 Noroeste 33 Noroeste 0 -- -- 38
2019-05-18 14:00:00 12.9 16 Noroeste 32 Noroeste 0 -- -- 46
2019-05-18 13:00:00 11.3 15 Noroeste 30 Norte 0 -- -- 52
2019-05-18 12:00:00 9.3 19 Noroeste 31 Noroeste 0 -- -- 57
2019-05-18 11:00:00 7.9 17 Norte 31 Noroeste 0 -- -- 63
2019-05-18 10:00:00 7.4 19 Norte 32 Norte 0 -- -- 69
2019-05-18 09:00:00 5.5 12 Norte 18 Norte 0 -- -- 85
2019-05-18 08:00:00 2.8 5 Noroeste 12 Noroeste 0 -- -- 90
2019-05-18 07:00:00 3.2 4 Norte 13 Noroeste 0 -- -- 88
2019-05-18 06:00:00 4.2 6 Noroeste 13 Noroeste 0 -- -- 83
2019-05-18 05:00:00 5.4 8 Noroeste 17 Noroeste 0 -- -- 82
2019-05-18 04:00:00 5.6 11 Noroeste 21 Noroeste 0 -- -- 79
2019-05-18 03:00:00 5.7 12 Noroeste 20 Noroeste 0 -- -- 78
2019-05-18 02:00:00 6.6 16 Noroeste 28 Oeste 0 -- -- 74
2019-05-18 01:00:00 7.4 15 Noroeste 29 Noroeste 0 -- -- 73
2019-05-18 00:00:00 8 14 Noroeste 30 Noroeste 0 -- -- 69
2019-05-17 23:00:00 9.3 19 Noroeste 31 Noroeste 0 -- -- 64
2019-05-17 22:00:00 9.5 14 Noroeste 24 Norte 0 -- -- 68
2019-05-17 21:00:00 10.6 18 Noroeste 38 Noroeste 0 -- -- 63
2019-05-17 20:00:00 13.2 26 Noroeste 45 Noroeste 0 -- -- 50
2019-05-17 19:00:00 12.7 23 Noroeste 38 Noroeste 0 -- -- 52
2019-05-17 18:00:00 14 25 Noroeste 40 Noroeste 0 -- -- 45
2019-05-17 17:00:00 13.6 27 Noroeste 50 Noroeste 0 -- -- 47
2019-05-17 16:00:00 14.5 27 Noroeste 41 Noroeste 0 -- -- 39
2019-05-17 15:00:00 14.3 26 Noroeste 44 Noroeste 0 -- -- 43
2019-05-17 14:00:00 13.1 23 Noroeste 39 Noroeste 0 -- -- 49
2019-05-17 13:00:00 10.9 23 Noroeste 40 Noroeste 0 -- -- 59
2019-05-17 12:00:00 9.5 19 Noroeste 31 Noroeste 0 -- -- 65
2019-05-17 11:00:00 8.3 19 Noroeste 36 Oeste 0 -- -- 70
2019-05-17 10:00:00 7.7 20 Noroeste 34 Noroeste 0 -- -- 72
2019-05-17 09:00:00 7.3 23 Noroeste 31 Noroeste 0 -- -- 74
2019-05-17 08:00:00 6.4 24 Noroeste 36 Noroeste 0 -- -- 77
2019-05-17 07:00:00 6 17 Noroeste 34 Noroeste 0 -- -- 78
2019-05-17 06:00:00 5.7 23 Noroeste 34 Noroeste 0 -- -- 80
2019-05-17 05:00:00 5.4 12 Noroeste 29 Noroeste 0 -- -- 81
2019-05-17 04:00:00 6.1 21 Noroeste 30 Noroeste 0 -- -- 79
2019-05-17 03:00:00 6.7 17 Noroeste 32 Noroeste 0 -- -- 76
2019-05-17 02:00:00 7.2 20 Noroeste 35 Noroeste 0 -- -- 75
2019-05-17 01:00:00 7.5 24 Noroeste 47 Noroeste 0 -- -- 75
2019-05-17 00:00:00 9 29 Noroeste 48 Noroeste 0 -- -- 71